createdAt,value
2022-11-22T00:00:20.429Z,7.66
2022-11-22T00:02:46.925Z,7.69
2022-11-22T00:05:13.506Z,7.69
2022-11-22T00:07:39.987Z,7.69
2022-11-22T00:10:08.530Z,7.70
2022-11-22T00:12:35.442Z,7.71
2022-11-22T00:15:02.097Z,7.69
2022-11-22T00:17:28.491Z,7.71
2022-11-22T00:19:54.909Z,7.69
2022-11-22T00:22:21.246Z,7.69
2022-11-22T00:24:48.879Z,7.68
2022-11-22T00:27:15.212Z,7.70
2022-11-22T00:29:41.561Z,7.71
2022-11-22T00:32:08.018Z,7.70
2022-11-22T00:34:34.411Z,7.72
2022-11-22T00:37:00.796Z,7.71
2022-11-22T00:39:27.577Z,7.70
2022-11-22T00:41:54.182Z,7.70
2022-11-22T00:44:20.554Z,7.71
2022-11-22T00:46:46.960Z,7.73
2022-11-22T00:49:13.409Z,7.74
2022-11-22T00:51:40.334Z,7.70
2022-11-22T00:54:06.950Z,7.70
2022-11-22T00:56:33.531Z,7.72
2022-11-22T00:58:59.929Z,7.71
2022-11-22T01:01:26.368Z,7.72
2022-11-22T01:03:52.845Z,7.71
2022-11-22T01:06:19.421Z,7.71
2022-11-22T01:08:46.200Z,7.71
2022-11-22T01:11:15.081Z,7.72
2022-11-22T01:13:41.494Z,7.72
2022-11-22T01:16:09.494Z,7.71
2022-11-22T01:18:36.636Z,7.72
2022-11-22T01:21:04.680Z,7.75
2022-11-22T01:23:31.323Z,7.76
2022-11-22T01:25:57.789Z,7.75
2022-11-22T01:28:25.855Z,7.71
2022-11-22T01:30:53.465Z,7.71
2022-11-22T01:33:20.537Z,7.72
2022-11-22T01:35:47.332Z,7.71
2022-11-22T01:38:13.807Z,7.73
2022-11-22T01:40:40.339Z,7.72
2022-11-22T01:43:17.325Z,7.73
2022-11-22T01:45:57.972Z,7.72
2022-11-22T01:48:36.640Z,7.75
2022-11-22T01:51:18.443Z,7.75
2022-11-22T01:53:45.231Z,7.74
2022-11-22T01:56:15.188Z,7.76
2022-11-22T01:58:44.793Z,7.75
2022-11-22T02:01:11.469Z,7.75
2022-11-22T02:03:40.423Z,7.76
2022-11-22T02:06:07.572Z,7.75
2022-11-22T02:08:44.840Z,7.75
2022-11-22T02:11:12.506Z,7.75
2022-11-22T02:13:42.897Z,7.75
2022-11-22T02:16:10.911Z,7.76
2022-11-22T02:18:37.917Z,7.74
2022-11-22T02:21:05.649Z,7.74
2022-11-22T02:23:45.651Z,7.75
2022-11-22T02:26:12.472Z,7.74
2022-11-22T02:28:40.089Z,7.72
2022-11-22T02:31:06.914Z,7.72
2022-11-22T02:33:33.328Z,7.69
2022-11-22T02:35:59.974Z,7.70
2022-11-22T02:38:31.526Z,7.70
2022-11-22T02:41:02.825Z,7.71
2022-11-22T02:43:42.085Z,7.70
2022-11-22T02:46:10.994Z,7.70
2022-11-22T02:48:44.242Z,7.69
2022-11-22T02:51:11.657Z,7.68
2022-11-22T02:53:37.973Z,7.68
2022-11-22T02:56:04.549Z,7.68
2022-11-22T02:58:30.879Z,7.67
2022-11-22T03:00:57.276Z,7.65
2022-11-22T03:03:23.657Z,7.62
2022-11-22T03:05:49.969Z,7.63
2022-11-22T03:08:16.377Z,7.64
2022-11-22T03:10:42.698Z,7.62
2022-11-22T03:13:09.095Z,7.61
2022-11-22T03:15:35.535Z,7.62
2022-11-22T03:18:03.821Z,7.61
2022-11-22T03:20:30.922Z,7.61
2022-11-22T03:22:59.749Z,7.58
2022-11-22T03:25:26.389Z,7.60
2022-11-22T03:27:52.777Z,7.61
2022-11-22T03:30:19.545Z,7.60
2022-11-22T03:32:45.931Z,7.59
2022-11-22T03:35:12.434Z,7.57
2022-11-22T03:37:38.889Z,7.57
2022-11-22T03:40:05.837Z,7.58
2022-11-22T03:42:32.266Z,7.57
2022-11-22T03:44:58.643Z,7.55
2022-11-22T03:47:24.990Z,7.54
2022-11-22T03:49:51.393Z,7.52
2022-11-22T03:52:17.730Z,7.49
2022-11-22T03:54:44.116Z,7.50
2022-11-22T03:57:10.508Z,7.50
2022-11-22T03:59:36.937Z,7.51
2022-11-22T04:02:03.438Z,7.51
2022-11-22T04:04:29.891Z,7.50
2022-11-22T04:06:56.294Z,7.50
2022-11-22T04:09:22.689Z,7.48
2022-11-22T04:11:49.138Z,7.47
2022-11-22T04:14:34.161Z,7.47
2022-11-22T04:17:00.547Z,7.45
2022-11-22T04:19:27.217Z,7.45
2022-11-22T04:21:53.718Z,7.44
2022-11-22T04:24:38.563Z,7.45
2022-11-22T04:27:04.981Z,7.47
2022-11-22T04:29:31.623Z,7.47
2022-11-22T04:32:16.937Z,7.49
2022-11-22T04:34:43.426Z,7.50
2022-11-22T04:37:09.821Z,7.48
2022-11-22T04:39:36.253Z,7.50
2022-11-22T04:42:21.297Z,7.52
2022-11-22T04:44:47.735Z,7.54
2022-11-22T04:47:56.515Z,7.55
2022-11-22T04:50:41.387Z,7.54
2022-11-22T04:53:07.879Z,7.53
2022-11-22T04:55:34.253Z,7.55
2022-11-22T04:58:00.777Z,7.54
2022-11-22T05:00:31.277Z,7.55
2022-11-22T05:02:58.174Z,7.58
2022-11-22T05:05:25.581Z,7.55
2022-11-22T05:07:52.056Z,7.54
2022-11-22T05:10:22.904Z,7.55
2022-11-22T05:12:52.766Z,7.54
2022-11-22T05:15:19.088Z,7.54
2022-11-22T05:17:45.692Z,7.57
2022-11-22T05:20:12.127Z,7.56
2022-11-22T05:22:57.696Z,7.59
2022-11-22T05:25:25.721Z,7.61
2022-11-22T05:27:55.486Z,7.57
2022-11-22T05:30:22.272Z,7.58
2022-11-22T05:32:48.650Z,7.57
2022-11-22T05:35:15.177Z,7.58
2022-11-22T05:37:41.521Z,7.54
2022-11-22T05:40:08.607Z,7.53
2022-11-22T05:42:35.564Z,7.55
2022-11-22T05:45:01.971Z,7.59
2022-11-22T05:47:28.392Z,7.57
2022-11-22T05:49:54.710Z,7.56
2022-11-22T05:52:21.390Z,7.57
2022-11-22T05:54:47.764Z,7.55
2022-11-22T05:57:14.104Z,7.55
2022-11-22T05:59:44.082Z,7.58
2022-11-22T06:02:10.890Z,7.60
2022-11-22T06:04:37.465Z,7.61
2022-11-22T06:07:08.492Z,7.60
2022-11-22T06:09:36.625Z,7.60
2022-11-22T06:12:03.105Z,7.62
2022-11-22T06:14:29.473Z,7.61
2022-11-22T06:16:55.809Z,7.60
2022-11-22T06:19:22.156Z,7.60
2022-11-22T06:21:48.525Z,7.59
2022-11-22T06:24:14.950Z,7.59
2022-11-22T06:26:41.354Z,7.57
2022-11-22T06:29:07.928Z,7.52
2022-11-22T06:31:34.238Z,7.51
2022-11-22T06:34:01.094Z,7.50
2022-11-22T06:36:30.355Z,7.50
2022-11-22T06:38:57.233Z,7.47
2022-11-22T06:41:31.109Z,7.47
2022-11-22T06:43:57.596Z,7.46
2022-11-22T06:46:26.142Z,7.45
2022-11-22T06:48:52.943Z,7.45
2022-11-22T06:51:24.730Z,7.48
2022-11-22T06:53:51.921Z,7.44
2022-11-22T06:56:27.073Z,7.42
2022-11-22T06:58:54.435Z,7.44
2022-11-22T07:01:29.334Z,7.47
2022-11-22T07:04:00.219Z,7.47
2022-11-22T07:06:31.894Z,7.44
2022-11-22T07:08:59.809Z,7.43
2022-11-22T07:11:29.178Z,7.42
2022-11-22T07:14:00.508Z,7.43
2022-11-22T07:16:31.642Z,7.42
2022-11-22T07:19:00.429Z,7.44
2022-11-22T07:21:27.498Z,7.45
2022-11-22T07:23:55.549Z,7.47
2022-11-22T07:26:23.856Z,7.44
2022-11-22T07:28:50.484Z,7.45
2022-11-22T07:31:18.376Z,7.44
2022-11-22T07:33:44.901Z,7.41
2022-11-22T07:36:17.294Z,7.43
2022-11-22T07:38:43.806Z,7.38
2022-11-22T07:41:10.517Z,7.40
2022-11-22T07:43:37.429Z,7.41
2022-11-22T07:46:11.502Z,7.42
2022-11-22T07:48:37.825Z,7.42
2022-11-22T07:51:06.773Z,7.41
2022-11-22T07:53:34.037Z,7.39
2022-11-22T07:56:04.468Z,7.40
2022-11-22T07:58:31.238Z,7.40
2022-11-22T08:00:57.607Z,7.40
2022-11-22T08:03:28.863Z,7.43
2022-11-22T08:06:03.027Z,7.43
2022-11-22T08:08:29.765Z,7.43
2022-11-22T08:10:56.353Z,7.45
2022-11-22T08:13:23.240Z,7.45
2022-11-22T08:15:51.468Z,7.46
2022-11-22T08:18:20.120Z,7.45
2022-11-22T08:20:46.583Z,7.46
2022-11-22T08:23:13.045Z,7.44
2022-11-22T08:25:39.483Z,7.39
2022-11-22T08:28:05.855Z,7.38
2022-11-22T08:30:32.350Z,7.38
2022-11-22T08:32:58.690Z,7.34
2022-11-22T08:35:25.050Z,7.35
2022-11-22T08:37:55.410Z,7.33
2022-11-22T08:40:21.955Z,7.31
2022-11-22T08:42:48.773Z,7.30
2022-11-22T08:45:15.405Z,7.29
2022-11-22T08:47:41.755Z,7.33
2022-11-22T08:50:08.611Z,7.35
2022-11-22T08:52:35.061Z,7.40
2022-11-22T08:55:01.673Z,7.37
2022-11-22T08:57:28.034Z,7.35
2022-11-22T08:59:54.525Z,7.34
2022-11-22T09:02:20.991Z,7.33
2022-11-22T09:04:47.354Z,7.35
2022-11-22T09:10:00.143Z,7.40
2022-11-22T09:12:26.527Z,7.38
2022-11-22T09:14:52.920Z,7.39
2022-11-22T09:17:19.284Z,7.40
2022-11-22T09:19:45.711Z,7.42
2022-11-22T09:22:12.146Z,7.43
2022-11-22T09:24:38.525Z,7.41
2022-11-22T09:27:04.955Z,7.42
2022-11-22T09:29:31.589Z,7.41
2022-11-22T09:32:01.298Z,7.38
2022-11-22T09:34:27.686Z,7.42
2022-11-22T09:36:54.041Z,7.44
2022-11-22T09:39:20.429Z,7.48
2022-11-22T09:42:05.709Z,7.50
2022-11-22T09:44:35.135Z,7.51
2022-11-22T09:47:28.990Z,7.50
2022-11-22T09:50:20.739Z,7.52
2022-11-22T09:52:56.511Z,7.51
2022-11-22T09:55:25.599Z,7.50
2022-11-22T09:58:33.357Z,7.51
2022-11-22T10:01:18.516Z,7.49
2022-11-22T10:03:52.013Z,7.45
2022-11-22T10:06:24.523Z,7.48
2022-11-22T10:09:08.863Z,7.53
2022-11-22T10:11:44.141Z,7.55
2022-11-22T10:14:27.741Z,7.55
2022-11-22T10:17:16.007Z,7.53
2022-11-22T10:19:53.476Z,7.55
2022-11-22T10:22:19.920Z,7.53
2022-11-22T10:24:46.473Z,7.54
2022-11-22T10:27:16.073Z,7.53
2022-11-22T10:29:55.446Z,7.55
2022-11-22T10:32:33.645Z,7.52
2022-11-22T10:35:22.953Z,7.53
2022-11-22T10:38:17.790Z,7.51
2022-11-22T10:40:57.451Z,7.54
2022-11-22T10:43:44.706Z,7.58
2022-11-22T10:46:38.130Z,7.60
2022-11-22T10:49:26.930Z,7.53
2022-11-22T10:51:59.409Z,7.55
2022-11-22T10:54:47.773Z,7.57
2022-11-22T10:57:29.908Z,7.61
2022-11-22T11:00:18.309Z,7.61
2022-11-22T11:03:06.238Z,7.63
2022-11-22T11:06:00.991Z,7.58
2022-11-22T11:09:36.223Z,7.55
2022-11-22T11:11:30.150Z,7.59
2022-11-22T11:14:01.590Z,7.62
2022-11-22T11:16:32.812Z,7.66
2022-11-22T11:19:16.321Z,7.64
2022-11-22T11:21:42.653Z,7.64
2022-11-22T11:24:14.979Z,7.65
2022-11-22T11:26:44.084Z,7.67
2022-11-22T11:29:19.359Z,7.67
2022-11-22T11:31:47.754Z,7.67
2022-11-22T11:34:29.550Z,7.67
2022-11-22T11:37:00.405Z,7.70
2022-11-22T11:39:34.617Z,7.70
2022-11-22T11:42:20.135Z,7.70
2022-11-22T11:44:46.554Z,7.71
2022-11-22T11:47:19.675Z,7.73
2022-11-22T11:49:52.302Z,7.76
2022-11-22T11:52:25.694Z,7.76
2022-11-22T11:54:58.712Z,7.76
2022-11-22T11:57:33.591Z,7.76
2022-11-22T12:00:01.957Z,7.78
2022-11-22T12:02:42.086Z,7.76
2022-11-22T12:05:11.614Z,7.80
2022-11-22T12:07:39.473Z,7.85
2022-11-22T12:10:24.746Z,7.85
2022-11-22T12:13:28.200Z,7.86
2022-11-22T12:16:18.764Z,7.85
2022-11-22T12:19:24.999Z,7.86
2022-11-22T12:22:19.709Z,7.84
2022-11-22T12:25:31.173Z,7.86
2022-11-22T12:27:49.327Z,7.84
2022-11-22T12:30:16.107Z,7.84
2022-11-22T12:32:58.610Z,7.85
2022-11-22T12:35:27.358Z,7.88
2022-11-22T12:38:11.533Z,7.87
2022-11-22T12:40:42.898Z,7.86
2022-11-22T12:43:26.189Z,7.89
2022-11-22T12:45:56.490Z,7.89
2022-11-22T12:48:33.079Z,7.89
2022-11-22T12:51:07.562Z,7.89
2022-11-22T12:53:43.238Z,7.92
2022-11-22T12:56:17.738Z,7.94
2022-11-22T12:59:17.650Z,7.97
2022-11-22T13:02:05.207Z,7.96
2022-11-22T13:04:54.646Z,7.96
2022-11-22T13:07:39.429Z,7.99
2022-11-22T13:10:14.283Z,7.96
2022-11-22T13:12:42.181Z,7.96
2022-11-22T13:15:28.289Z,7.97
2022-11-22T13:17:54.846Z,7.99
2022-11-22T13:20:26.806Z,8.01
2022-11-22T13:23:17.387Z,8.02
2022-11-22T13:26:22.389Z,8.01
2022-11-22T13:28:50.693Z,8.00
2022-11-22T13:31:19.542Z,8.01
2022-11-22T13:33:54.375Z,8.02
2022-11-22T13:36:26.804Z,8.02
2022-11-22T13:38:59.172Z,8.02
2022-11-22T13:41:34.649Z,8.02
2022-11-22T13:44:26.429Z,8.05
2022-11-22T13:46:56.969Z,8.07
2022-11-22T13:49:39.090Z,8.08
2022-11-22T13:52:12.363Z,8.10
2022-11-22T13:54:59.373Z,8.12
2022-11-22T13:57:36.298Z,8.09
2022-11-22T14:00:15.041Z,8.08
2022-11-22T14:02:53.153Z,8.10
2022-11-22T14:05:24.844Z,8.13
2022-11-22T14:07:53.895Z,8.14
2022-11-22T14:10:34.763Z,8.14
2022-11-22T14:13:24.722Z,8.16
2022-11-22T14:16:12.551Z,8.16
2022-11-22T14:18:58.526Z,8.17
2022-11-22T14:21:46.095Z,8.19
2022-11-22T14:24:26.741Z,8.21
2022-11-22T14:27:11.785Z,8.25
2022-11-22T14:29:52.281Z,8.25
2022-11-22T14:32:22.610Z,8.25
2022-11-22T14:35:04.265Z,8.25
2022-11-22T14:37:33.761Z,8.27
2022-11-22T14:40:06.364Z,8.26
2022-11-22T14:42:43.645Z,8.25
2022-11-22T14:45:12.838Z,8.27
2022-11-22T14:47:40.813Z,8.23
2022-11-22T14:50:21.251Z,8.25
2022-11-22T14:52:48.213Z,8.27
2022-11-22T14:55:18.731Z,8.25
2022-11-22T14:57:48.485Z,8.27
2022-11-22T15:00:25.321Z,8.30
2022-11-22T15:03:03.869Z,8.30
2022-11-22T15:09:11.680Z,8.29
2022-11-22T15:09:16.586Z,8.30
2022-11-22T15:11:17.731Z,8.32
2022-11-22T15:14:02.375Z,8.31
2022-11-22T15:59:42.941Z,8.34
2022-11-22T16:02:20.135Z,8.33
2022-11-22T16:04:49.411Z,8.34
2022-11-22T16:07:47.180Z,8.36
2022-11-22T16:10:21.836Z,8.36
2022-11-22T16:12:48.698Z,8.36
2022-11-22T16:15:36.871Z,8.36
2022-11-22T16:18:27.333Z,8.36
2022-11-22T16:21:04.894Z,8.35
2022-11-22T16:23:37.256Z,8.35
2022-11-22T16:26:22.087Z,8.36
2022-11-22T16:28:51.309Z,8.33
2022-11-22T16:31:33.972Z,8.35
2022-11-22T16:34:01.658Z,8.37
2022-11-22T16:36:32.029Z,8.37
2022-11-22T16:38:58.529Z,8.38
2022-11-22T16:41:26.801Z,8.41
2022-11-22T16:44:02.739Z,8.41
2022-11-22T16:46:29.745Z,8.41
2022-11-22T16:49:02.350Z,8.38
2022-11-22T16:51:29.950Z,8.39
2022-11-22T16:54:05.598Z,8.42
2022-11-22T16:56:32.894Z,8.42
2022-11-22T16:58:59.306Z,8.43
2022-11-22T17:01:30.948Z,8.44
2022-11-22T17:03:57.817Z,8.46
2022-11-22T17:06:26.837Z,8.46
2022-11-22T17:08:55.758Z,8.45
2022-11-22T17:11:27.632Z,8.46
2022-11-22T17:13:54.295Z,8.47
2022-11-22T17:16:20.734Z,8.48
2022-11-22T17:18:48.075Z,8.49
2022-11-22T17:21:37.721Z,8.49
2022-11-22T17:24:17.896Z,8.46
2022-11-22T17:26:44.458Z,8.47
2022-11-22T17:29:14.167Z,8.46
2022-11-22T17:31:55.283Z,8.47
2022-11-22T17:34:21.695Z,8.50
2022-11-22T17:36:48.149Z,8.51
2022-11-22T17:39:14.566Z,8.49
2022-11-22T17:41:41.439Z,8.50
2022-11-22T17:44:12.542Z,8.49
2022-11-22T17:46:39.763Z,8.49
2022-11-22T17:49:09.063Z,8.51
2022-11-22T17:51:37.889Z,8.52
2022-11-22T17:54:04.550Z,8.51
2022-11-22T17:56:33.556Z,8.49
2022-11-22T17:59:00.270Z,8.50
2022-11-22T18:01:26.591Z,8.48
2022-11-22T18:03:52.990Z,8.46
2022-11-22T18:06:23.442Z,8.46
2022-11-22T18:08:49.859Z,8.48
2022-11-22T18:11:17.075Z,8.50
2022-11-22T18:13:44.106Z,8.50
2022-11-22T18:16:15.638Z,8.52
2022-11-22T18:18:58.436Z,8.50
2022-11-22T18:21:28.881Z,8.50
2022-11-22T18:23:56.820Z,8.49
2022-11-22T18:26:38.836Z,8.47
2022-11-22T18:31:54.192Z,8.49
2022-11-22T18:34:21.992Z,8.47
2022-11-22T18:37:00.860Z,8.46
2022-11-22T18:39:31.181Z,8.42
2022-11-22T18:41:57.875Z,8.44
2022-11-22T18:44:24.202Z,8.43
2022-11-22T18:46:50.633Z,8.41
2022-11-22T18:49:16.980Z,8.41
2022-11-22T18:51:43.303Z,8.41
2022-11-22T18:54:11.448Z,8.36
2022-11-22T18:56:40.326Z,8.36
2022-11-22T18:59:09.987Z,8.35
2022-11-22T19:01:36.721Z,8.37
2022-11-22T19:04:03.405Z,8.36
2022-11-22T19:06:30.712Z,8.34
2022-11-22T19:08:57.774Z,8.33
2022-11-22T19:11:24.840Z,8.35
2022-11-22T19:13:51.246Z,8.34
2022-11-22T19:16:21.847Z,8.35
2022-11-22T19:18:48.731Z,8.37
2022-11-22T19:21:21.203Z,8.36
2022-11-22T19:23:49.664Z,8.39
2022-11-22T19:26:21.359Z,8.42
2022-11-22T19:28:48.572Z,8.43
2022-11-22T19:31:20.097Z,8.43
2022-11-22T19:33:46.920Z,8.42
2022-11-22T19:36:30.806Z,8.43
2022-11-22T19:38:59.772Z,8.43
2022-11-22T19:41:26.762Z,8.41
2022-11-22T19:43:53.352Z,8.43
2022-11-22T19:46:20.066Z,8.43
2022-11-22T19:48:51.110Z,8.42
2022-11-22T19:51:17.617Z,8.40
2022-11-22T19:53:44.217Z,8.42
2022-11-22T19:56:16.149Z,8.42
2022-11-22T19:58:44.183Z,8.42
2022-11-22T20:01:12.835Z,8.42
2022-11-22T20:03:41.125Z,8.40
2022-11-22T20:06:09.952Z,8.41
2022-11-22T20:08:37.285Z,8.41
2022-11-22T20:11:09.877Z,8.40
2022-11-22T20:13:39.024Z,8.42
2022-11-22T20:16:11.368Z,8.43
2022-11-22T20:18:37.862Z,8.45
2022-11-22T20:21:05.722Z,8.45
2022-11-22T20:23:32.347Z,8.47
2022-11-22T20:26:06.736Z,8.44
2022-11-22T20:28:33.244Z,8.45
2022-11-22T20:31:13.170Z,8.47
2022-11-22T20:33:42.036Z,8.46
2022-11-22T20:36:11.173Z,8.46
2022-11-22T20:38:40.856Z,8.48
2022-11-22T20:41:08.746Z,8.50
2022-11-22T20:43:36.490Z,8.49
2022-11-22T20:46:03.904Z,8.49
2022-11-22T20:48:39.716Z,8.50
2022-11-22T20:51:08.615Z,8.48
2022-11-22T20:53:35.879Z,8.45
2022-11-22T20:56:03.528Z,8.46
2022-11-22T20:58:30.259Z,8.47
2022-11-22T21:00:57.257Z,8.50
2022-11-22T21:03:24.848Z,8.50
2022-11-22T21:05:53.571Z,8.51
2022-11-22T21:08:21.219Z,8.50
2022-11-22T21:10:48.120Z,8.50
2022-11-22T21:13:14.786Z,8.50
2022-11-22T21:15:41.450Z,8.49
2022-11-22T21:18:24.870Z,8.49
2022-11-22T21:20:52.227Z,8.51
2022-11-22T21:23:18.584Z,8.51
2022-11-22T21:25:46.309Z,8.51
2022-11-22T21:28:12.735Z,8.53
2022-11-22T21:30:39.173Z,8.53
2022-11-22T21:33:05.628Z,8.53
2022-11-22T21:35:32.035Z,8.56
2022-11-22T21:37:58.368Z,8.56
2022-11-22T21:40:24.701Z,8.58
2022-11-22T21:42:51.073Z,8.56
2022-11-22T21:45:17.613Z,8.56
2022-11-22T21:47:44.021Z,8.58
2022-11-22T21:50:12.346Z,8.58
2022-11-22T21:52:38.830Z,8.54
2022-11-22T21:55:05.666Z,8.58
2022-11-22T21:57:32.034Z,8.59
2022-11-22T21:59:58.403Z,8.59
2022-11-22T22:02:24.770Z,8.61
2022-11-22T22:04:51.117Z,8.62
2022-11-22T22:07:36.465Z,8.62
2022-11-22T22:10:05.020Z,8.63
2022-11-22T22:12:31.338Z,8.63
2022-11-22T22:14:57.672Z,8.64
2022-11-22T22:17:24.046Z,8.63
2022-11-22T22:19:52.379Z,8.61
2022-11-22T22:22:18.841Z,8.64
2022-11-22T22:24:45.274Z,8.62
2022-11-22T22:27:11.654Z,8.64
2022-11-22T22:29:38.050Z,8.63
2022-11-22T22:32:10.269Z,8.64
2022-11-22T22:34:37.059Z,8.63
2022-11-22T22:37:03.428Z,8.63
2022-11-22T22:39:30.288Z,8.65
2022-11-22T22:41:57.054Z,8.68
2022-11-22T22:44:23.487Z,8.66
2022-11-22T22:46:49.864Z,8.67
2022-11-22T22:49:16.264Z,8.68
2022-11-22T22:51:42.772Z,8.69
2022-11-22T22:54:10.358Z,8.68
2022-11-22T22:56:36.773Z,8.68
2022-11-22T22:59:05.145Z,8.67
2022-11-22T23:01:31.848Z,8.68
2022-11-22T23:04:00.285Z,8.69
2022-11-22T23:06:28.917Z,8.69
2022-11-22T23:08:55.784Z,8.68
2022-11-22T23:11:44.880Z,8.68
2022-11-22T23:14:12.836Z,8.72
2022-11-22T23:16:39.821Z,8.68
2022-11-22T23:19:07.177Z,8.70
2022-11-22T23:21:34.149Z,8.68
2022-11-22T23:24:00.777Z,8.69
2022-11-22T23:26:27.330Z,8.71
2022-11-22T23:28:53.724Z,8.71
2022-11-22T23:31:20.839Z,8.69
2022-11-22T23:33:47.398Z,8.70
2022-11-22T23:36:16.161Z,8.72
2022-11-22T23:38:43.297Z,8.72
2022-11-22T23:41:19.780Z,8.73
2022-11-22T23:43:47.394Z,8.72
2022-11-22T23:46:17.869Z,8.73
2022-11-22T23:49:03.785Z,8.71
2022-11-22T23:51:31.773Z,8.74
2022-11-22T23:54:00.658Z,8.72
2022-11-22T23:56:28.312Z,8.72
2022-11-22T23:58:54.975Z,8.72
